Time;durP1;ratioP1;P1;durP2;ratioP2;P2;SDS_P1;SDS_P2;PMS_P1;PMS_P2;Temp;Humidity;BMP_temperature;BMP_pressure;BME280_temperature;BME280_humidity;BME280_pressure;Samples;Min_cycle;Max_cycle;Signal;HPM_P1;HPM_P2
2024/01/04 00:00:15;;;;;;;5.80;1.50;;;;;;;;;;103636;1295;544857;-68
2024/01/04 00:03:52;;;;;;;5.90;1.80;;;;;;;;;;104069;1286;544974;-69
2024/01/04 00:07:29;;;;;;;5.50;1.70;;;;;;;;;;103785;1292;544964;-70
2024/01/04 00:11:10;;;;;;;6.90;2.20;;;;;;;;;;103316;1291;544923;-69
2024/01/04 00:14:45;;;;;;;5.10;1.60;;;;;;;;;;103778;1292;545212;-69
2024/01/04 00:18:24;;;;;;;7.70;2.40;;;;;;;;;;103537;1294;546046;-69
2024/01/04 00:22:00;;;;;;;9.20;3.40;;;;;;;;;;103431;1292;545652;-69
2024/01/04 00:25:37;;;;;;;12.10;4.90;;;;;;;;;;103460;1290;545151;-70
2024/01/04 00:29:15;;;;;;;15.70;6.90;;;;;;;;;;103510;1292;545531;-69
2024/01/04 00:32:52;;;;;;;9.50;4.10;;;;;;;;;;103645;1292;546071;-70
2024/01/04 00:36:29;;;;;;;8.90;3.30;;;;;;;;;;103615;1288;545494;-71
2024/01/04 00:40:08;;;;;;;9.30;3.20;;;;;;;;;;103473;1289;545400;-71
2024/01/04 00:43:44;;;;;;;10.20;3.40;;;;;;;;;;103501;1292;545534;-69
2024/01/04 00:47:22;;;;;;;10.80;3.90;;;;;;;;;;103582;1289;544958;-69
2024/01/04 00:51:01;;;;;;;9.70;3.40;;;;;;;;;;103658;1295;545238;-69
2024/01/04 00:54:36;;;;;;;9.40;2.90;;;;;;;;;;103463;1292;544754;-70
2024/01/04 00:58:14;;;;;;;8.30;2.20;;;;;;;;;;103841;1289;545496;-71
2024/01/04 01:01:48;;;;;;;6.00;2.30;;;;;;;;;;103564;1291;545663;-71
2024/01/04 01:05:29;;;;;;;7.20;2.70;;;;;;;;;;104001;1289;544785;-70
2024/01/04 01:09:07;;;;;;;5.40;1.70;;;;;;;;;;103672;1289;544919;-71
2024/01/04 01:12:44;;;;;;;5.70;1.80;;;;;;;;;;103622;1292;544704;-72
2024/01/04 01:16:22;;;;;;;5.10;1.60;;;;;;;;;;103820;1291;545163;-71
2024/01/04 01:19:59;;;;;;;4.70;1.50;;;;;;;;;;103530;1291;545505;-69
2024/01/04 01:23:37;;;;;;;4.40;1.40;;;;;;;;;;103724;1292;545079;-71
2024/01/04 01:27:14;;;;;;;4.10;1.20;;;;;;;;;;103674;1292;545448;-72
2024/01/04 01:30:52;;;;;;;4.80;1.90;;;;;;;;;;103846;1290;544953;-72
2024/01/04 01:34:29;;;;;;;8.30;3.00;;;;;;;;;;103613;1289;545551;-73
2024/01/04 01:38:06;;;;;;;6.40;1.60;;;;;;;;;;103471;1291;544856;-69
2024/01/04 01:41:44;;;;;;;5.80;1.40;;;;;;;;;;103694;1292;544913;-70
2024/01/04 01:45:22;;;;;;;5.90;1.40;;;;;;;;;;103603;1292;544610;-72
2024/01/04 01:48:59;;;;;;;4.80;1.60;;;;;;;;;;103773;1290;545682;-69
2024/01/04 01:52:37;;;;;;;4.00;1.40;;;;;;;;;;103854;1289;545442;-69
2024/01/04 01:56:13;;;;;;;4.90;1.40;;;;;;;;;;103834;1289;544862;-72
2024/01/04 01:59:51;;;;;;;4.80;1.30;;;;;;;;;;103461;1289;545229;-71
2024/01/04 02:03:25;;;;;;;5.20;1.50;;;;;;;;;;103671;1288;544878;-71
2024/01/04 02:07:07;;;;;;;3.80;1.20;;;;;;;;;;103661;1292;545360;-70
2024/01/04 02:10:44;;;;;;;5.70;1.60;;;;;;;;;;103576;1289;545514;-71
2024/01/04 02:14:21;;;;;;;4.60;1.60;;;;;;;;;;103952;1286;545410;-69
2024/01/04 02:17:59;;;;;;;4.80;1.20;;;;;;;;;;103663;1289;545114;-72
2024/01/04 02:21:40;;;;;;;5.50;1.60;;;;;;;;;;103566;1289;546091;-72
2024/01/04 02:25:13;;;;;;;4.90;1.30;;;;;;;;;;103648;1294;544813;-71
2024/01/04 02:28:51;;;;;;;4.60;1.30;;;;;;;;;;103746;1290;545056;-69
2024/01/04 02:32:29;;;;;;;4.70;1.20;;;;;;;;;;103965;1286;544953;-69
2024/01/04 02:36:06;;;;;;;2.90;1.00;;;;;;;;;;103966;1289;545301;-72
2024/01/04 02:39:43;;;;;;;5.50;1.20;;;;;;;;;;103706;1289;545847;-70
2024/01/04 02:43:22;;;;;;;4.60;1.00;;;;;;;;;;103444;1291;545566;-70
2024/01/04 02:46:56;;;;;;;3.40;0.90;;;;;;;;;;103581;1289;545377;-70
2024/01/04 02:50:36;;;;;;;2.20;0.70;;;;;;;;;;103459;1291;544718;-70
2024/01/04 02:54:13;;;;;;;2.60;0.80;;;;;;;;;;103838;1289;544762;-70
2024/01/04 02:57:51;;;;;;;3.90;0.80;;;;;;;;;;103721;1291;544989;-70
2024/01/04 03:01:28;;;;;;;3.20;0.90;;;;;;;;;;103713;1290;545283;-71
2024/01/04 03:05:06;;;;;;;3.40;0.80;;;;;;;;;;103662;1292;544937;-71
2024/01/04 03:08:43;;;;;;;3.90;1.00;;;;;;;;;;103610;1290;544910;-71
2024/01/04 03:12:21;;;;;;;3.10;0.70;;;;;;;;;;103647;1291;545467;-71
2024/01/04 03:15:58;;;;;;;2.40;0.60;;;;;;;;;;103884;1293;545988;-71
2024/01/04 03:19:35;;;;;;;4.00;0.80;;;;;;;;;;103703;1291;544909;-72
2024/01/04 03:23:12;;;;;;;2.20;0.60;;;;;;;;;;103652;1292;545934;-70
2024/01/04 03:26:50;;;;;;;3.20;0.60;;;;;;;;;;103676;1301;544948;-69
2024/01/04 03:30:24;;;;;;;3.70;0.70;;;;;;;;;;103783;1289;545476;-73
2024/01/04 03:34:05;;;;;;;1.90;0.60;;;;;;;;;;103767;1289;545384;-71
2024/01/04 03:37:45;;;;;;;3.20;0.80;;;;;;;;;;103666;1292;544738;-70
2024/01/04 03:41:21;;;;;;;2.40;0.80;;;;;;;;;;104088;1283;545345;-72
2024/01/04 03:44:58;;;;;;;2.70;0.90;;;;;;;;;;103741;1290;545626;-73
2024/01/04 03:48:35;;;;;;;2.90;0.80;;;;;;;;;;103643;1289;544793;-72
2024/01/04 03:52:13;;;;;;;2.80;0.80;;;;;;;;;;103539;1292;545018;-70
2024/01/04 03:55:49;;;;;;;3.00;0.80;;;;;;;;;;103695;1291;544827;-69
2024/01/04 03:59:27;;;;;;;4.50;1.10;;;;;;;;;;103885;1289;544931;-70
2024/01/04 04:03:05;;;;;;;3.10;0.80;;;;;;;;;;103842;1289;544942;-71
2024/01/04 04:06:42;;;;;;;3.20;0.90;;;;;;;;;;103654;1290;544718;-72
2024/01/04 04:10:20;;;;;;;3.40;1.20;;;;;;;;;;103707;1292;544850;-71
2024/01/04 04:13:58;;;;;;;1.70;0.60;;;;;;;;;;103790;1290;546003;-72
2024/01/04 04:17:38;;;;;;;2.30;0.70;;;;;;;;;;103595;1289;547704;-72
2024/01/04 04:21:22;;;;;;;3.00;0.70;;;;;;;;;;103796;1289;544717;-72
2024/01/04 04:24:50;;;;;;;1.40;0.50;;;;;;;;;;103532;1291;544771;-71
2024/01/04 04:28:28;;;;;;;1.80;0.50;;;;;;;;;;103686;1295;545046;-71
2024/01/04 04:32:01;;;;;;;1.30;0.40;;;;;;;;;;103719;1289;545431;-71
2024/01/04 04:35:42;;;;;;;1.50;0.50;;;;;;;;;;103711;1292;545114;-71
2024/01/04 04:39:20;;;;;;;2.10;0.60;;;;;;;;;;103711;1292;545422;-73
2024/01/04 04:42:57;;;;;;;2.50;0.70;;;;;;;;;;103767;1290;545044;-72
2024/01/04 04:46:35;;;;;;;1.40;0.60;;;;;;;;;;103813;1288;544838;-70
2024/01/04 04:50:12;;;;;;;1.70;0.60;;;;;;;;;;103726;1288;544877;-72
2024/01/04 04:53:49;;;;;;;2.50;0.70;;;;;;;;;;103888;1289;545226;-70
2024/01/04 04:57:27;;;;;;;2.30;0.60;;;;;;;;;;103654;1289;544851;-71
2024/01/04 05:01:04;;;;;;;2.20;0.70;;;;;;;;;;103731;1289;544963;-72
2024/01/04 05:04:44;;;;;;;2.40;0.70;;;;;;;;;;103876;1289;545992;-72
2024/01/04 05:08:19;;;;;;;1.50;0.50;;;;;;;;;;103881;1289;544793;-72
2024/01/04 05:11:57;;;;;;;1.80;0.60;;;;;;;;;;103781;1289;545061;-69
2024/01/04 05:15:34;;;;;;;2.50;0.80;;;;;;;;;;103631;1291;544809;-69
2024/01/04 05:19:12;;;;;;;2.70;0.90;;;;;;;;;;103602;1294;545428;-71
2024/01/04 05:22:49;;;;;;;1.90;0.70;;;;;;;;;;103832;1292;545072;-72
2024/01/04 05:26:23;;;;;;;2.30;0.60;;;;;;;;;;103575;1291;544813;-73
2024/01/04 05:30:08;;;;;;;2.60;0.80;;;;;;;;;;103864;1302;545024;-70
2024/01/04 05:33:42;;;;;;;2.70;0.70;;;;;;;;;;103736;1289;544980;-73
2024/01/04 05:37:19;;;;;;;2.40;0.70;;;;;;;;;;103670;1289;544752;-72
2024/01/04 05:40:57;;;;;;;2.30;0.60;;;;;;;;;;103746;1292;545771;-69
2024/01/04 05:44:34;;;;;;;3.00;1.00;;;;;;;;;;103868;1288;545564;-71
2024/01/04 05:48:12;;;;;;;3.30;1.10;;;;;;;;;;103492;1295;544772;-70
2024/01/04 05:51:48;;;;;;;3.00;0.60;;;;;;;;;;103626;1293;545339;-72
2024/01/04 05:55:27;;;;;;;2.50;0.80;;;;;;;;;;103753;1290;544949;-73
2024/01/04 05:59:24;;;;;;;2.10;0.60;;;;;;;;;;103814;1292;548402;-70
2024/01/04 06:02:37;;;;;;;2.50;0.80;;;;;;;;;;103880;1289;545706;-73
2024/01/04 06:06:19;;;;;;;2.20;0.70;;;;;;;;;;103584;1292;544953;-72
2024/01/04 06:09:56;;;;;;;4.40;1.00;;;;;;;;;;103781;1289;545022;-71
2024/01/04 06:13:34;;;;;;;3.50;0.70;;;;;;;;;;103680;1295;545358;-72
2024/01/04 06:17:11;;;;;;;3.30;0.90;;;;;;;;;;103607;1291;545582;-72
2024/01/04 06:20:48;;;;;;;3.40;1.00;;;;;;;;;;103664;1295;546061;-72
2024/01/04 06:24:26;;;;;;;2.70;1.00;;;;;;;;;;103708;1289;544779;-71
2024/01/04 06:28:04;;;;;;;3.30;1.00;;;;;;;;;;103706;1292;544927;-72
2024/01/04 06:31:41;;;;;;;2.90;0.90;;;;;;;;;;103657;1301;545428;-71
2024/01/04 06:35:18;;;;;;;3.50;1.10;;;;;;;;;;103739;1289;544764;-71
2024/01/04 06:38:56;;;;;;;5.30;1.70;;;;;;;;;;103610;1290;545290;-70
2024/01/04 06:42:55;;;;;;;11.60;5.30;;;;;;;;;;103660;1294;548034;-71
2024/01/04 06:46:30;;;;;;;11.60;4.80;;;;;;;;;;103755;1291;547983;-72
2024/01/04 06:49:48;;;;;;;17.90;7.80;;;;;;;;;;103760;1292;544869;-71
2024/01/04 06:53:27;;;;;;;28.70;11.40;;;;;;;;;;103759;1289;545698;-72
2024/01/04 06:57:06;;;;;;;33.50;12.90;;;;;;;;;;103821;1290;544723;-71
2024/01/04 07:00:41;;;;;;;27.80;10.70;;;;;;;;;;103802;1302;545030;-71
2024/01/04 07:04:18;;;;;;;33.40;12.10;;;;;;;;;;103757;1291;544734;-71
2024/01/04 07:07:56;;;;;;;19.70;8.30;;;;;;;;;;103914;1289;545074;-71
2024/01/04 07:11:33;;;;;;;19.20;9.40;;;;;;;;;;103788;1291;544589;-71
2024/01/04 07:15:14;;;;;;;18.00;8.50;;;;;;;;;;103614;1291;546639;-72
2024/01/04 07:18:48;;;;;;;6.50;2.50;;;;;;;;;;104737;1283;545332;-72
2024/01/04 07:22:27;;;;;;;4.70;1.80;;;;;;;;;;103648;1295;544933;-71
2024/01/04 07:26:03;;;;;;;4.20;1.20;;;;;;;;;;103987;1289;545146;-71
2024/01/04 07:29:40;;;;;;;5.10;1.80;;;;;;;;;;103658;1290;544954;-72
2024/01/04 07:33:18;;;;;;;3.80;1.40;;;;;;;;;;103931;1289;544724;-73
2024/01/04 07:36:56;;;;;;;4.60;1.10;;;;;;;;;;103770;1289;545439;-74
2024/01/04 07:40:32;;;;;;;7.90;2.80;;;;;;;;;;103750;1292;544904;-73
2024/01/04 07:44:10;;;;;;;8.50;3.60;;;;;;;;;;104665;1280;545118;-71
2024/01/04 07:47:47;;;;;;;6.70;2.20;;;;;;;;;;103814;1291;545736;-71
2024/01/04 07:51:25;;;;;;;4.40;1.20;;;;;;;;;;103762;1289;544959;-71
2024/01/04 07:55:03;;;;;;;3.10;1.10;;;;;;;;;;103812;1289;545331;-72
2024/01/04 07:58:40;;;;;;;3.40;1.00;;;;;;;;;;103796;1289;544910;-71
2024/01/04 08:02:18;;;;;;;2.60;0.80;;;;;;;;;;104815;1286;544800;-71
2024/01/04 08:05:55;;;;;;;1.40;0.70;;;;;;;;;;104636;1289;544819;-71
2024/01/04 08:09:32;;;;;;;2.10;0.80;;;;;;;;;;105092;1288;544762;-70
2024/01/04 08:13:11;;;;;;;2.50;0.90;;;;;;;;;;104648;1295;546118;-71
2024/01/04 08:16:49;;;;;;;8.80;1.70;;;;;;;;;;104984;1289;544765;-72
2024/01/04 08:20:25;;;;;;;4.80;1.10;;;;;;;;;;104772;1294;545309;-69
2024/01/04 08:24:03;;;;;;;3.70;0.70;;;;;;;;;;104993;1289;544980;-71
2024/01/04 08:27:41;;;;;;;3.40;1.00;;;;;;;;;;104800;1289;544920;-72
2024/01/04 08:31:18;;;;;;;2.60;0.80;;;;;;;;;;104811;1290;545472;-73
2024/01/04 08:34:55;;;;;;;4.20;0.60;;;;;;;;;;104660;1292;544854;-70
2024/01/04 08:38:32;;;;;;;3.20;0.60;;;;;;;;;;104823;1289;545066;-71
2024/01/04 08:42:10;;;;;;;2.10;0.70;;;;;;;;;;104061;1290;545066;-72
2024/01/04 08:45:49;;;;;;;2.90;1.00;;;;;;;;;;103720;1289;544760;-73
2024/01/04 08:49:21;;;;;;;2.70;0.60;;;;;;;;;;103849;1292;544809;-73
2024/01/04 08:53:02;;;;;;;4.30;1.40;;;;;;;;;;103987;1292;544968;-71
2024/01/04 08:56:40;;;;;;;6.50;1.00;;;;;;;;;;103806;1289;545368;-73
2024/01/04 09:00:17;;;;;;;2.90;0.50;;;;;;;;;;103691;1289;545322;-72
2024/01/04 09:03:55;;;;;;;2.90;0.60;;;;;;;;;;103812;1291;544830;-72
2024/01/04 09:07:32;;;;;;;3.10;0.70;;;;;;;;;;103784;1289;545004;-71
2024/01/04 09:11:06;;;;;;;3.30;0.60;;;;;;;;;;103923;1288;544609;-72
2024/01/04 09:14:47;;;;;;;1.20;0.40;;;;;;;;;;103713;1301;544969;-71
2024/01/04 09:18:24;;;;;;;3.10;0.70;;;;;;;;;;103803;1289;544833;-70
2024/01/04 09:22:02;;;;;;;2.70;0.70;;;;;;;;;;104323;1283;545522;-71
2024/01/04 09:25:39;;;;;;;1.90;0.60;;;;;;;;;;103439;1296;546005;-72
2024/01/04 09:29:17;;;;;;;6.60;1.50;;;;;;;;;;103602;1291;545046;-71
2024/01/04 09:32:54;;;;;;;3.80;0.80;;;;;;;;;;103844;1292;545003;-72
2024/01/04 09:36:31;;;;;;;10.30;4.00;;;;;;;;;;103740;1289;545006;-71
2024/01/04 09:40:10;;;;;;;4.60;1.10;;;;;;;;;;103412;1295;545822;-71
2024/01/04 09:43:49;;;;;;;5.40;1.30;;;;;;;;;;103724;1291;545378;-72
2024/01/04 09:47:25;;;;;;;7.90;2.00;;;;;;;;;;103620;1289;545086;-72
2024/01/04 09:51:01;;;;;;;9.90;2.00;;;;;;;;;;103660;1292;545071;-73
2024/01/04 09:54:40;;;;;;;6.70;1.70;;;;;;;;;;103515;1302;544771;-72
2024/01/04 09:58:16;;;;;;;7.10;1.50;;;;;;;;;;103588;1292;545244;-70
2024/01/04 10:01:54;;;;;;;7.10;1.70;;;;;;;;;;103816;1290;545003;-72
2024/01/04 10:05:31;;;;;;;9.40;3.80;;;;;;;;;;103760;1302;544991;-72
2024/01/04 10:09:05;;;;;;;10.90;4.40;;;;;;;;;;103741;1288;544873;-71
2024/01/04 10:12:48;;;;;;;9.10;2.80;;;;;;;;;;103745;1289;544743;-69
2024/01/04 10:16:24;;;;;;;8.90;2.90;;;;;;;;;;103606;1292;544780;-72
2024/01/04 10:20:04;;;;;;;9.50;3.10;;;;;;;;;;103803;1289;544998;-72
2024/01/04 10:23:38;;;;;;;6.90;2.40;;;;;;;;;;103394;1292;544906;-71
2024/01/04 10:27:16;;;;;;;6.70;2.10;;;;;;;;;;103810;1289;545516;-72
2024/01/04 10:30:56;;;;;;;7.40;1.60;;;;;;;;;;103652;1291;544899;-70
2024/01/04 10:34:33;;;;;;;7.40;1.80;;;;;;;;;;103820;1292;545580;-73
2024/01/04 10:38:04;;;;;;;6.30;1.50;;;;;;;;;;103887;1289;544896;-72
2024/01/04 10:41:59;;;;;;;4.00;1.00;;;;;;;;;;103735;1291;545455;-72
2024/01/04 10:45:24;;;;;;;4.90;1.00;;;;;;;;;;103565;1295;545897;-73
2024/01/04 10:49:02;;;;;;;5.00;1.30;;;;;;;;;;103721;1290;545235;-71
2024/01/04 10:52:39;;;;;;;7.00;4.10;;;;;;;;;;103888;1289;545312;-73
2024/01/04 10:56:16;;;;;;;4.80;1.00;;;;;;;;;;104384;1286;545037;-72
2024/01/04 10:59:54;;;;;;;2.00;0.70;;;;;;;;;;103758;1289;544689;-71
2024/01/04 11:03:32;;;;;;;2.10;0.70;;;;;;;;;;103800;1292;544950;-69
2024/01/04 11:07:17;;;;;;;3.50;1.00;;;;;;;;;;103396;1291;548456;-69
2024/01/04 11:10:43;;;;;;;2.60;1.00;;;;;;;;;;103684;1291;545474;-71
2024/01/04 11:14:25;;;;;;;4.10;1.60;;;;;;;;;;103613;1291;546215;-73
2024/01/04 11:18:12;;;;;;;4.10;1.20;;;;;;;;;;103821;1288;544754;-69
2024/01/04 11:21:58;;;;;;;5.30;2.20;;;;;;;;;;103757;1289;544943;-70
2024/01/04 11:25:26;;;;;;;4.20;1.40;;;;;;;;;;103680;1292;544711;-71
2024/01/04 11:28:56;;;;;;;3.80;1.20;;;;;;;;;;103848;1292;545361;-69
2024/01/04 11:32:31;;;;;;;2.00;0.70;;;;;;;;;;103747;1289;544785;-71
2024/01/04 11:36:08;;;;;;;6.20;2.20;;;;;;;;;;103873;1288;544925;-74
2024/01/04 11:39:59;;;;;;;1.90;0.70;;;;;;;;;;103622;1295;545396;-71
2024/01/04 11:43:33;;;;;;;2.90;0.80;;;;;;;;;;103787;1288;545368;-73
2024/01/04 11:47:00;;;;;;;2.00;0.80;;;;;;;;;;104095;1289;545072;-75
2024/01/04 11:50:49;;;;;;;2.00;0.80;;;;;;;;;;103719;1289;545249;-71
2024/01/04 11:54:17;;;;;;;4.40;1.30;;;;;;;;;;103859;1289;545667;-70
2024/01/04 11:58:08;;;;;;;3.70;1.10;;;;;;;;;;103756;1292;544729;-70
2024/01/04 12:01:31;;;;;;;5.70;1.50;;;;;;;;;;104282;1289;544988;-73
2024/01/04 12:05:08;;;;;;;2.10;0.80;;;;;;;;;;103622;1290;545287;-72
2024/01/04 12:08:45;;;;;;;4.40;1.20;;;;;;;;;;103798;1290;544949;-72
2024/01/04 12:12:23;;;;;;;5.00;1.50;;;;;;;;;;103747;1290;545432;-71
2024/01/04 12:16:03;;;;;;;2.50;0.80;;;;;;;;;;103754;1292;545419;-73
2024/01/04 12:30:05;;;;;;;5.10;1.50;;;;;;;;;;104624;1285;549874;-74
2024/01/04 12:32:57;;;;;;;5.60;2.00;;;;;;;;;;103696;1295;545978;-71
2024/01/04 12:36:34;;;;;;;7.10;2.40;;;;;;;;;;103683;1292;545571;-71
2024/01/04 12:40:12;;;;;;;3.10;1.20;;;;;;;;;;103738;1289;545436;-74
2024/01/04 12:43:55;;;;;;;3.00;1.00;;;;;;;;;;103470;1292;547954;-73
2024/01/04 12:47:29;;;;;;;4.90;1.20;;;;;;;;;;103887;1289;544648;-72
2024/01/04 12:51:14;;;;;;;5.10;1.50;;;;;;;;;;103701;1289;544766;-74
2024/01/04 12:54:41;;;;;;;9.50;3.90;;;;;;;;;;103739;1292;546002;-70
2024/01/04 12:58:20;;;;;;;4.50;1.10;;;;;;;;;;103837;1292;545019;-72
2024/01/04 13:01:56;;;;;;;5.30;1.70;;;;;;;;;;103706;1294;544884;-70
2024/01/04 13:05:34;;;;;;;3.60;0.90;;;;;;;;;;103729;1292;544948;-70
2024/01/04 13:09:15;;;;;;;7.30;2.80;;;;;;;;;;103855;1289;545135;-73
2024/01/04 13:12:50;;;;;;;4.70;1.80;;;;;;;;;;103714;1289;544725;-70
2024/01/04 13:16:28;;;;;;;4.80;1.40;;;;;;;;;;103802;1292;545536;-72
2024/01/04 13:20:04;;;;;;;3.20;0.80;;;;;;;;;;104273;1282;546745;-71
2024/01/04 13:23:41;;;;;;;2.70;0.90;;;;;;;;;;103786;1289;545497;-71
2024/01/04 13:27:16;;;;;;;3.90;1.00;;;;;;;;;;104538;1285;545033;-73
2024/01/04 13:31:02;;;;;;;2.60;0.90;;;;;;;;;;103609;1289;547986;-70
2024/01/04 13:34:33;;;;;;;1.30;0.60;;;;;;;;;;103628;1295;545421;-72
2024/01/04 13:38:10;;;;;;;1.90;0.70;;;;;;;;;;103938;1292;544794;-70
2024/01/04 13:41:44;;;;;;;3.00;0.80;;;;;;;;;;103800;1288;544737;-73
2024/01/04 13:45:27;;;;;;;3.30;1.10;;;;;;;;;;103871;1289;545479;-71
2024/01/04 13:49:03;;;;;;;7.00;2.80;;;;;;;;;;103812;1292;545455;-73
2024/01/04 13:52:40;;;;;;;6.70;3.10;;;;;;;;;;103743;1289;544979;-73
2024/01/04 13:56:24;;;;;;;12.00;6.10;;;;;;;;;;103583;1291;549296;-73
2024/01/04 13:59:56;;;;;;;10.30;5.40;;;;;;;;;;103230;1295;545505;-73
2024/01/04 14:03:30;;;;;;;10.10;4.30;;;;;;;;;;103771;1292;545853;-72
2024/01/04 14:07:10;;;;;;;10.90;5.40;;;;;;;;;;104005;1289;544909;-72
2024/01/04 14:10:53;;;;;;;34.70;16.90;;;;;;;;;;103419;1291;548059;-71
2024/01/04 14:14:25;;;;;;;20.90;9.10;;;;;;;;;;103716;1292;545040;-72
2024/01/04 14:18:03;;;;;;;22.90;10.80;;;;;;;;;;103768;1295;545167;-69
2024/01/04 14:21:40;;;;;;;22.40;10.50;;;;;;;;;;103708;1290;545079;-71
2024/01/04 14:25:14;;;;;;;17.90;8.30;;;;;;;;;;103782;1301;544742;-71
2024/01/04 14:28:55;;;;;;;19.00;9.80;;;;;;;;;;104011;1289;544766;-71
2024/01/04 14:32:32;;;;;;;14.90;5.50;;;;;;;;;;103945;1289;545646;-71
2024/01/04 14:36:10;;;;;;;16.70;6.60;;;;;;;;;;103668;1291;545256;-71
2024/01/04 14:39:49;;;;;;;11.60;4.10;;;;;;;;;;104184;1286;544843;-71
2024/01/04 14:43:25;;;;;;;9.40;4.30;;;;;;;;;;103544;1292;544789;-73
2024/01/04 14:47:03;;;;;;;8.70;4.10;;;;;;;;;;103788;1289;545129;-72
2024/01/04 14:50:40;;;;;;;9.30;4.10;;;;;;;;;;103605;1291;545631;-73
2024/01/04 14:54:20;;;;;;;6.30;2.50;;;;;;;;;;103616;1301;545483;-72
2024/01/04 14:57:55;;;;;;;5.90;2.30;;;;;;;;;;103850;1295;545082;-72
2024/01/04 15:01:32;;;;;;;8.60;3.80;;;;;;;;;;103622;1291;545085;-71
2024/01/04 15:05:10;;;;;;;8.40;4.00;;;;;;;;;;103564;1295;544985;-73
2024/01/04 15:08:43;;;;;;;7.60;2.40;;;;;;;;;;103972;1290;545418;-73
2024/01/04 15:12:20;;;;;;;13.00;5.50;;;;;;;;;;103959;1289;545304;-72
2024/01/04 15:16:02;;;;;;;20.40;10.80;;;;;;;;;;103762;1295;545463;-73
2024/01/04 15:19:39;;;;;;;24.00;13.30;;;;;;;;;;104022;1290;545069;-72
2024/01/04 15:23:18;;;;;;;7.60;3.20;;;;;;;;;;103708;1289;545419;-71
2024/01/04 15:26:56;;;;;;;6.30;2.30;;;;;;;;;;103765;1289;544956;-71
2024/01/04 15:30:31;;;;;;;20.00;7.50;;;;;;;;;;103713;1292;545615;-71
2024/01/04 15:34:15;;;;;;;18.60;7.70;;;;;;;;;;103515;1293;546987;-73
2024/01/04 15:37:47;;;;;;;27.10;10.00;;;;;;;;;;103719;1289;545573;-72
2024/01/04 15:41:24;;;;;;;32.40;11.90;;;;;;;;;;103738;1289;544757;-72
2024/01/04 15:45:02;;;;;;;16.10;6.80;;;;;;;;;;104401;1286;545739;-71
2024/01/04 15:48:39;;;;;;;20.50;9.50;;;;;;;;;;103622;1291;544927;-73
2024/01/04 15:52:17;;;;;;;16.20;6.40;;;;;;;;;;103660;1295;545708;-73
2024/01/04 15:55:53;;;;;;;12.00;5.40;;;;;;;;;;103931;1289;544971;-72
2024/01/04 15:59:32;;;;;;;8.40;2.60;;;;;;;;;;103672;1291;544905;-71
2024/01/04 16:03:09;;;;;;;7.60;3.00;;;;;;;;;;103764;1289;545057;-71
2024/01/04 16:06:46;;;;;;;8.90;3.20;;;;;;;;;;103997;1289;545029;-70
2024/01/04 16:10:24;;;;;;;8.30;2.90;;;;;;;;;;103765;1289;545230;-72
2024/01/04 16:14:02;;;;;;;7.80;3.20;;;;;;;;;;103648;1291;546169;-72
2024/01/04 16:17:35;;;;;;;6.20;2.60;;;;;;;;;;103725;1292;545428;-71
2024/01/04 16:21:17;;;;;;;8.70;3.80;;;;;;;;;;103596;1289;546150;-72
2024/01/04 16:24:54;;;;;;;7.30;3.40;;;;;;;;;;103867;1290;544891;-72
2024/01/04 16:28:30;;;;;;;16.10;9.30;;;;;;;;;;103881;1296;545180;-71
2024/01/04 16:32:08;;;;;;;24.50;11.80;;;;;;;;;;103717;1292;545369;-71
2024/01/04 16:35:46;;;;;;;39.70;16.30;;;;;;;;;;103693;1291;545977;-71
2024/01/04 16:39:24;;;;;;;10.50;3.60;;;;;;;;;;103533;1291;545220;-72
2024/01/04 16:43:01;;;;;;;6.40;3.00;;;;;;;;;;103775;1295;545140;-72
2024/01/04 16:47:03;;;;;;;12.40;5.10;;;;;;;;;;103696;1292;548687;-72
2024/01/04 16:50:13;;;;;;;12.00;5.40;;;;;;;;;;103997;1295;544787;-71
2024/01/04 16:53:54;;;;;;;10.10;4.20;;;;;;;;;;103588;1291;544928;-72
2024/01/04 16:57:37;;;;;;;10.50;4.20;;;;;;;;;;103663;1291;547996;-70
2024/01/04 17:01:04;;;;;;;6.30;2.20;;;;;;;;;;103778;1289;545118;-71
2024/01/04 17:04:46;;;;;;;7.10;2.80;;;;;;;;;;103806;1289;544711;-73
2024/01/04 17:08:23;;;;;;;7.80;3.30;;;;;;;;;;103722;1289;545062;-72
2024/01/04 17:12:04;;;;;;;7.50;2.90;;;;;;;;;;104004;1288;545016;-72
2024/01/04 17:15:38;;;;;;;9.60;4.50;;;;;;;;;;103604;1292;544985;-72
2024/01/04 17:19:12;;;;;;;10.70;4.20;;;;;;;;;;103686;1292;545845;-72
2024/01/04 17:22:59;;;;;;;8.20;3.50;;;;;;;;;;103431;1294;548081;-72
2024/01/04 17:26:31;;;;;;;5.30;2.10;;;;;;;;;;103892;1295;545255;-72
2024/01/04 17:30:09;;;;;;;9.50;4.50;;;;;;;;;;103582;1292;545648;-72
2024/01/04 17:33:46;;;;;;;10.70;5.00;;;;;;;;;;103955;1289;544866;-72
2024/01/04 17:37:23;;;;;;;10.40;4.30;;;;;;;;;;103610;1290;545167;-73
2024/01/04 17:40:56;;;;;;;10.00;4.50;;;;;;;;;;103741;1289;545518;-73
2024/01/04 17:44:38;;;;;;;10.00;4.50;;;;;;;;;;103802;1291;545045;-72
2024/01/04 17:48:15;;;;;;;16.80;8.80;;;;;;;;;;103947;1292;545242;-74
2024/01/04 17:51:53;;;;;;;16.70;5.70;;;;;;;;;;103901;1289;545783;-73
2024/01/04 17:55:31;;;;;;;12.40;5.70;;;;;;;;;;103918;1289;544786;-73
2024/01/04 17:59:08;;;;;;;9.20;3.50;;;;;;;;;;103739;1289;544971;-72
2024/01/04 18:03:06;;;;;;;11.80;5.00;;;;;;;;;;103602;1295;548084;-73
2024/01/04 18:06:23;;;;;;;8.70;4.00;;;;;;;;;;103775;1295;546199;-73
2024/01/04 18:10:00;;;;;;;7.50;2.80;;;;;;;;;;103801;1289;545043;-72
2024/01/04 18:13:40;;;;;;;5.70;2.00;;;;;;;;;;103711;1289;545602;-73
2024/01/04 18:17:22;;;;;;;5.20;1.80;;;;;;;;;;103686;1293;547984;-72
2024/01/04 18:20:55;;;;;;;5.00;2.10;;;;;;;;;;104171;1283;547796;-73
2024/01/04 18:24:32;;;;;;;4.50;1.50;;;;;;;;;;103859;1294;545088;-73
2024/01/04 18:28:08;;;;;;;5.70;1.60;;;;;;;;;;104116;1289;544884;-72
2024/01/04 18:31:45;;;;;;;4.80;1.40;;;;;;;;;;103724;1292;544745;-73
2024/01/04 18:35:25;;;;;;;3.90;1.20;;;;;;;;;;103594;1289;544820;-71
2024/01/04 18:38:56;;;;;;;4.40;1.60;;;;;;;;;;103759;1289;545004;-72
2024/01/04 18:42:37;;;;;;;11.20;3.50;;;;;;;;;;103757;1289;545027;-73
2024/01/04 18:46:15;;;;;;;12.10;4.20;;;;;;;;;;103659;1291;545634;-72
2024/01/04 18:49:54;;;;;;;10.50;3.90;;;;;;;;;;103701;1292;544868;-73
2024/01/04 18:53:53;;;;;;;9.20;3.90;;;;;;;;;;103655;1295;547821;-72
2024/01/04 18:57:09;;;;;;;10.50;3.90;;;;;;;;;;103781;1292;544923;-73
2024/01/04 19:00:45;;;;;;;4.20;1.60;;;;;;;;;;103648;1290;545030;-71
2024/01/04 19:04:23;;;;;;;4.30;1.40;;;;;;;;;;103728;1292;545003;-72
2024/01/04 19:08:00;;;;;;;5.80;2.00;;;;;;;;;;103687;1292;544955;-72
2024/01/04 19:11:39;;;;;;;8.80;3.40;;;;;;;;;;103771;1289;545265;-71
2024/01/04 19:15:15;;;;;;;12.20;6.10;;;;;;;;;;103838;1289;545028;-72
2024/01/04 19:18:48;;;;;;;9.40;3.80;;;;;;;;;;103817;1289;545237;-71
2024/01/04 19:22:30;;;;;;;6.60;2.50;;;;;;;;;;103804;1289;544909;-70
2024/01/04 19:26:10;;;;;;;5.20;2.40;;;;;;;;;;103865;1289;544801;-71
2024/01/04 19:29:44;;;;;;;5.10;2.10;;;;;;;;;;103882;1289;545063;-73
2024/01/04 19:33:22;;;;;;;6.40;2.20;;;;;;;;;;103745;1289;545162;-72
2024/01/04 19:36:59;;;;;;;4.90;1.80;;;;;;;;;;103665;1292;545974;-71
2024/01/04 19:40:37;;;;;;;6.00;1.90;;;;;;;;;;103744;1288;545122;-71
2024/01/04 19:44:14;;;;;;;6.10;2.20;;;;;;;;;;103781;1291;544966;-72
2024/01/04 19:47:54;;;;;;;4.70;1.80;;;;;;;;;;103693;1303;544958;-74
2024/01/04 19:51:26;;;;;;;6.50;2.00;;;;;;;;;;104303;1286;545396;-72
2024/01/04 19:55:13;;;;;;;5.40;1.80;;;;;;;;;;103517;1292;548398;-73
2024/01/04 19:58:46;;;;;;;8.00;2.30;;;;;;;;;;103797;1296;544704;-71
2024/01/04 20:02:22;;;;;;;6.20;2.00;;;;;;;;;;103643;1293;544812;-73
2024/01/04 20:05:59;;;;;;;6.60;2.10;;;;;;;;;;103606;1291;545266;-73
2024/01/04 20:09:37;;;;;;;6.70;2.40;;;;;;;;;;103722;1292;544942;-73
2024/01/04 20:13:14;;;;;;;6.60;2.20;;;;;;;;;;103662;1293;544973;-70
2024/01/04 20:16:52;;;;;;;6.40;2.10;;;;;;;;;;103619;1294;545597;-73
2024/01/04 20:20:49;;;;;;;5.40;1.90;;;;;;;;;;103617;1295;549381;-74
2024/01/04 20:24:07;;;;;;;9.70;3.50;;;;;;;;;;103751;1291;545325;-72
2024/01/04 20:27:44;;;;;;;9.90;4.70;;;;;;;;;;103847;1292;544937;-72
2024/01/04 20:31:21;;;;;;;7.00;2.30;;;;;;;;;;103648;1293;545247;-71
2024/01/04 20:34:59;;;;;;;8.00;2.70;;;;;;;;;;103828;1289;545068;-72
2024/01/04 20:38:36;;;;;;;4.90;1.70;;;;;;;;;;103550;1294;544756;-73
2024/01/04 20:42:14;;;;;;;6.30;1.90;;;;;;;;;;103780;1292;544985;-72
2024/01/04 20:45:51;;;;;;;5.50;1.90;;;;;;;;;;103648;1291;544915;-73
2024/01/04 20:49:28;;;;;;;7.20;2.80;;;;;;;;;;103868;1289;545181;-72
2024/01/04 20:53:07;;;;;;;5.70;2.30;;;;;;;;;;103704;1291;544973;-72
2024/01/04 20:56:44;;;;;;;8.20;2.90;;;;;;;;;;103711;1292;545558;-72
2024/01/04 21:00:26;;;;;;;10.10;3.40;;;;;;;;;;103712;1290;544977;-72
2024/01/04 21:03:59;;;;;;;10.20;3.70;;;;;;;;;;103774;1289;544852;-71
2024/01/04 21:07:37;;;;;;;9.60;3.60;;;;;;;;;;103802;1292;544713;-71